sensor_id;sensor_type;location;lat;lon;timestamp;P1;durP1;ratioP1;P2;durP2;ratioP2
84482;SDS011;74703;51.284;22.590;2024-01-07T00:04:56;3.88;;;2.60;;
84482;SDS011;74703;51.284;22.590;2024-01-07T00:09:57;3.67;;;2.65;;
84482;SDS011;74703;51.284;22.590;2024-01-07T00:14:58;6.30;;;2.97;;
84482;SDS011;74703;51.284;22.590;2024-01-07T00:19:58;5.13;;;2.85;;
84482;SDS011;74703;51.284;22.590;2024-01-07T00:24:59;8.77;;;3.88;;
84482;SDS011;74703;51.284;22.590;2024-01-07T00:30:00;5.85;;;3.17;;
84482;SDS011;74703;51.284;22.590;2024-01-07T00:35:00;5.57;;;2.80;;
84482;SDS011;74703;51.284;22.590;2024-01-07T00:40:01;6.45;;;2.85;;
84482;SDS011;74703;51.284;22.590;2024-01-07T00:45:02;5.18;;;3.50;;
84482;SDS011;74703;51.284;22.590;2024-01-07T00:50:03;8.18;;;4.20;;
84482;SDS011;74703;51.284;22.590;2024-01-07T00:55:04;4.68;;;3.58;;
84482;SDS011;74703;51.284;22.590;2024-01-07T01:00:06;4.22;;;2.95;;
84482;SDS011;74703;51.284;22.590;2024-01-07T01:05:07;7.80;;;3.30;;
84482;SDS011;74703;51.284;22.590;2024-01-07T01:10:10;7.65;;;4.05;;
84482;SDS011;74703;51.284;22.590;2024-01-07T01:15:11;6.65;;;3.72;;
84482;SDS011;74703;51.284;22.590;2024-01-07T01:20:13;6.90;;;3.80;;
84482;SDS011;74703;51.284;22.590;2024-01-07T01:25:16;8.40;;;4.32;;
84482;SDS011;74703;51.284;22.590;2024-01-07T01:30:17;5.35;;;3.38;;
84482;SDS011;74703;51.284;22.590;2024-01-07T01:35:20;5.20;;;3.40;;
84482;SDS011;74703;51.284;22.590;2024-01-07T01:40:21;4.30;;;2.92;;
84482;SDS011;74703;51.284;22.590;2024-01-07T01:45:21;8.18;;;3.80;;
84482;SDS011;74703;51.284;22.590;2024-01-07T01:50:22;4.07;;;3.30;;
84482;SDS011;74703;51.284;22.590;2024-01-07T01:55:23;5.38;;;3.42;;
84482;SDS011;74703;51.284;22.590;2024-01-07T02:00:24;6.55;;;3.88;;
84482;SDS011;74703;51.284;22.590;2024-01-07T02:05:24;6.05;;;4.00;;
84482;SDS011;74703;51.284;22.590;2024-01-07T02:10:25;7.80;;;5.00;;
84482;SDS011;74703;51.284;22.590;2024-01-07T02:15:26;6.55;;;3.80;;
84482;SDS011;74703;51.284;22.590;2024-01-07T02:20:26;5.22;;;3.33;;
84482;SDS011;74703;51.284;22.590;2024-01-07T02:25:27;8.35;;;3.80;;
84482;SDS011;74703;51.284;22.590;2024-01-07T02:30:28;5.45;;;3.47;;
84482;SDS011;74703;51.284;22.590;2024-01-07T02:35:28;6.53;;;3.35;;
84482;SDS011;74703;51.284;22.590;2024-01-07T02:40:29;4.82;;;3.10;;
84482;SDS011;74703;51.284;22.590;2024-01-07T02:45:29;5.18;;;3.20;;
84482;SDS011;74703;51.284;22.590;2024-01-07T02:50:30;4.90;;;3.42;;
84482;SDS011;74703;51.284;22.590;2024-01-07T02:55:32;6.72;;;3.55;;
84482;SDS011;74703;51.284;22.590;2024-01-07T03:00:33;5.93;;;3.70;;
84482;SDS011;74703;51.284;22.590;2024-01-07T03:05:33;15.00;;;7.25;;
84482;SDS011;74703;51.284;22.590;2024-01-07T03:10:34;7.45;;;3.50;;
84482;SDS011;74703;51.284;22.590;2024-01-07T03:15:34;7.45;;;4.78;;
84482;SDS011;74703;51.284;22.590;2024-01-07T03:20:35;6.82;;;3.90;;
84482;SDS011;74703;51.284;22.590;2024-01-07T03:25:35;5.70;;;3.38;;
84482;SDS011;74703;51.284;22.590;2024-01-07T03:30:36;6.88;;;3.40;;
84482;SDS011;74703;51.284;22.590;2024-01-07T03:35:37;4.72;;;3.45;;
84482;SDS011;74703;51.284;22.590;2024-01-07T03:40:37;6.40;;;4.22;;
84482;SDS011;74703;51.284;22.590;2024-01-07T03:45:38;5.80;;;3.33;;
84482;SDS011;74703;51.284;22.590;2024-01-07T03:50:39;7.70;;;4.38;;
84482;SDS011;74703;51.284;22.590;2024-01-07T03:55:40;7.03;;;3.67;;
84482;SDS011;74703;51.284;22.590;2024-01-07T04:00:41;5.53;;;3.55;;
84482;SDS011;74703;51.284;22.590;2024-01-07T04:05:41;7.28;;;4.05;;
84482;SDS011;74703;51.284;22.590;2024-01-07T04:10:42;7.55;;;4.65;;
84482;SDS011;74703;51.284;22.590;2024-01-07T04:15:42;4.90;;;3.25;;
84482;SDS011;74703;51.284;22.590;2024-01-07T04:20:43;9.27;;;4.45;;
84482;SDS011;74703;51.284;22.590;2024-01-07T04:25:44;12.65;;;4.70;;
84482;SDS011;74703;51.284;22.590;2024-01-07T04:30:45;9.13;;;4.82;;
84482;SDS011;74703;51.284;22.590;2024-01-07T04:35:45;7.05;;;4.10;;
84482;SDS011;74703;51.284;22.590;2024-01-07T04:40:47;8.93;;;4.90;;
84482;SDS011;74703;51.284;22.590;2024-01-07T04:45:48;9.45;;;5.20;;
84482;SDS011;74703;51.284;22.590;2024-01-07T04:50:48;6.05;;;4.15;;
84482;SDS011;74703;51.284;22.590;2024-01-07T04:55:50;7.47;;;4.95;;
84482;SDS011;74703;51.284;22.590;2024-01-07T05:00:51;9.23;;;5.43;;
84482;SDS011;74703;51.284;22.590;2024-01-07T05:05:51;10.93;;;5.20;;
84482;SDS011;74703;51.284;22.590;2024-01-07T05:10:52;11.40;;;5.88;;
84482;SDS011;74703;51.284;22.590;2024-01-07T05:15:52;12.02;;;6.30;;
84482;SDS011;74703;51.284;22.590;2024-01-07T05:20:56;11.68;;;6.45;;
84482;SDS011;74703;51.284;22.590;2024-01-07T05:25:59;8.93;;;5.32;;
84482;SDS011;74703;51.284;22.590;2024-01-07T05:30:59;7.57;;;5.07;;
84482;SDS011;74703;51.284;22.590;2024-01-07T05:36:00;8.75;;;5.95;;
84482;SDS011;74703;51.284;22.590;2024-01-07T05:41:01;9.20;;;5.53;;
84482;SDS011;74703;51.284;22.590;2024-01-07T05:46:01;14.32;;;5.93;;
84482;SDS011;74703;51.284;22.590;2024-01-07T05:51:03;14.27;;;7.35;;
84482;SDS011;74703;51.284;22.590;2024-01-07T05:56:04;14.52;;;7.63;;
84482;SDS011;74703;51.284;22.590;2024-01-07T06:01:04;13.23;;;7.57;;
84482;SDS011;74703;51.284;22.590;2024-01-07T06:06:05;10.60;;;6.80;;
84482;SDS011;74703;51.284;22.590;2024-01-07T06:11:06;13.73;;;7.68;;
84482;SDS011;74703;51.284;22.590;2024-01-07T06:16:07;12.73;;;7.40;;
84482;SDS011;74703;51.284;22.590;2024-01-07T06:21:07;14.73;;;7.47;;
84482;SDS011;74703;51.284;22.590;2024-01-07T06:26:08;21.63;;;8.75;;
84482;SDS011;74703;51.284;22.590;2024-01-07T06:31:09;22.80;;;8.60;;
84482;SDS011;74703;51.284;22.590;2024-01-07T06:36:09;16.58;;;7.80;;
84482;SDS011;74703;51.284;22.590;2024-01-07T06:41:11;13.60;;;6.90;;
84482;SDS011;74703;51.284;22.590;2024-01-07T06:46:12;13.07;;;7.88;;
84482;SDS011;74703;51.284;22.590;2024-01-07T06:51:13;16.88;;;7.20;;
84482;SDS011;74703;51.284;22.590;2024-01-07T06:56:14;11.63;;;7.75;;
84482;SDS011;74703;51.284;22.590;2024-01-07T07:01:17;11.38;;;6.47;;
84482;SDS011;74703;51.284;22.590;2024-01-07T07:06:22;11.83;;;6.23;;
84482;SDS011;74703;51.284;22.590;2024-01-07T07:11:22;11.80;;;6.00;;
84482;SDS011;74703;51.284;22.590;2024-01-07T07:16:23;11.18;;;6.55;;
84482;SDS011;74703;51.284;22.590;2024-01-07T07:21:23;13.05;;;8.00;;
84482;SDS011;74703;51.284;22.590;2024-01-07T07:26:24;9.52;;;6.57;;
84482;SDS011;74703;51.284;22.590;2024-01-07T07:31:24;9.20;;;5.43;;
84482;SDS011;74703;51.284;22.590;2024-01-07T07:36:25;11.00;;;7.07;;
84482;SDS011;74703;51.284;22.590;2024-01-07T07:41:25;10.13;;;6.75;;
84482;SDS011;74703;51.284;22.590;2024-01-07T07:46:26;11.20;;;6.28;;
84482;SDS011;74703;51.284;22.590;2024-01-07T07:51:27;7.65;;;5.72;;
84482;SDS011;74703;51.284;22.590;2024-01-07T07:56:28;10.07;;;5.93;;
84482;SDS011;74703;51.284;22.590;2024-01-07T08:01:29;16.38;;;8.60;;
84482;SDS011;74703;51.284;22.590;2024-01-07T08:06:29;8.15;;;5.90;;
84482;SDS011;74703;51.284;22.590;2024-01-07T08:11:30;16.75;;;6.80;;
84482;SDS011;74703;51.284;22.590;2024-01-07T08:16:30;8.63;;;6.30;;
84482;SDS011;74703;51.284;22.590;2024-01-07T08:21:31;9.70;;;6.13;;
84482;SDS011;74703;51.284;22.590;2024-01-07T08:26:32;11.05;;;6.15;;
84482;SDS011;74703;51.284;22.590;2024-01-07T08:31:32;7.20;;;4.50;;
84482;SDS011;74703;51.284;22.590;2024-01-07T08:36:33;10.73;;;6.90;;
84482;SDS011;74703;51.284;22.590;2024-01-07T08:41:34;9.30;;;6.10;;
84482;SDS011;74703;51.284;22.590;2024-01-07T08:46:34;10.05;;;6.03;;
84482;SDS011;74703;51.284;22.590;2024-01-07T08:51:35;15.52;;;6.90;;
84482;SDS011;74703;51.284;22.590;2024-01-07T08:56:35;9.32;;;5.95;;
84482;SDS011;74703;51.284;22.590;2024-01-07T09:01:36;11.40;;;7.40;;
84482;SDS011;74703;51.284;22.590;2024-01-07T09:06:37;8.85;;;5.32;;
84482;SDS011;74703;51.284;22.590;2024-01-07T09:11:37;7.78;;;6.15;;
84482;SDS011;74703;51.284;22.590;2024-01-07T09:16:38;6.70;;;4.90;;
84482;SDS011;74703;51.284;22.590;2024-01-07T09:21:39;8.38;;;4.95;;
84482;SDS011;74703;51.284;22.590;2024-01-07T09:26:39;14.02;;;5.85;;
84482;SDS011;74703;51.284;22.590;2024-01-07T09:31:40;9.15;;;4.35;;
84482;SDS011;74703;51.284;22.590;2024-01-07T09:36:40;13.90;;;6.18;;
84482;SDS011;74703;51.284;22.590;2024-01-07T09:41:41;13.13;;;6.22;;
84482;SDS011;74703;51.284;22.590;2024-01-07T09:46:42;8.85;;;5.65;;
84482;SDS011;74703;51.284;22.590;2024-01-07T09:51:45;11.27;;;6.22;;
84482;SDS011;74703;51.284;22.590;2024-01-07T09:56:50;7.30;;;4.65;;
84482;SDS011;74703;51.284;22.590;2024-01-07T10:01:57;7.63;;;5.03;;
84482;SDS011;74703;51.284;22.590;2024-01-07T10:06:58;7.30;;;4.35;;
84482;SDS011;74703;51.284;22.590;2024-01-07T10:11:59;8.52;;;4.68;;
84482;SDS011;74703;51.284;22.590;2024-01-07T10:17:00;8.55;;;5.00;;
84482;SDS011;74703;51.284;22.590;2024-01-07T10:22:04;11.18;;;6.80;;
84482;SDS011;74703;51.284;22.590;2024-01-07T10:27:05;12.63;;;6.65;;
84482;SDS011;74703;51.284;22.590;2024-01-07T10:32:07;10.90;;;6.75;;
84482;SDS011;74703;51.284;22.590;2024-01-07T10:37:08;8.90;;;5.22;;
84482;SDS011;74703;51.284;22.590;2024-01-07T10:42:10;12.27;;;5.78;;
84482;SDS011;74703;51.284;22.590;2024-01-07T10:47:14;10.52;;;6.40;;
84482;SDS011;74703;51.284;22.590;2024-01-07T10:52:19;7.88;;;5.43;;
84482;SDS011;74703;51.284;22.590;2024-01-07T11:02:38;9.75;;;5.60;;
84482;SDS011;74703;51.284;22.590;2024-01-07T11:07:57;8.90;;;5.40;;
84482;SDS011;74703;51.284;22.590;2024-01-07T11:13:05;11.07;;;5.80;;
84482;SDS011;74703;51.284;22.590;2024-01-07T11:18:05;11.65;;;6.13;;
84482;SDS011;74703;51.284;22.590;2024-01-07T11:28:45;15.13;;;7.40;;
84482;SDS011;74703;51.284;22.590;2024-01-07T11:33:52;10.82;;;5.55;;
84482;SDS011;74703;51.284;22.590;2024-01-07T11:38:53;10.25;;;6.78;;
84482;SDS011;74703;51.284;22.590;2024-01-07T11:43:57;10.75;;;5.80;;
84482;SDS011;74703;51.284;22.590;2024-01-07T11:48:59;10.52;;;6.40;;
84482;SDS011;74703;51.284;22.590;2024-01-07T11:54:01;10.25;;;7.20;;
84482;SDS011;74703;51.284;22.590;2024-01-07T11:59:01;11.25;;;7.18;;
84482;SDS011;74703;51.284;22.590;2024-01-07T12:04:02;14.23;;;7.53;;
84482;SDS011;74703;51.284;22.590;2024-01-07T12:09:04;11.13;;;6.47;;
84482;SDS011;74703;51.284;22.590;2024-01-07T12:14:04;11.10;;;7.10;;
84482;SDS011;74703;51.284;22.590;2024-01-07T12:19:05;18.80;;;8.35;;
84482;SDS011;74703;51.284;22.590;2024-01-07T12:24:05;9.00;;;6.65;;
84482;SDS011;74703;51.284;22.590;2024-01-07T12:29:06;11.85;;;6.25;;
84482;SDS011;74703;51.284;22.590;2024-01-07T12:34:07;10.68;;;6.53;;
84482;SDS011;74703;51.284;22.590;2024-01-07T12:39:08;11.60;;;5.60;;
84482;SDS011;74703;51.284;22.590;2024-01-07T12:44:09;15.63;;;6.30;;
84482;SDS011;74703;51.284;22.590;2024-01-07T12:49:09;11.43;;;6.80;;
84482;SDS011;74703;51.284;22.590;2024-01-07T12:54:10;21.75;;;8.65;;
84482;SDS011;74703;51.284;22.590;2024-01-07T12:59:10;11.55;;;6.57;;
84482;SDS011;74703;51.284;22.590;2024-01-07T13:04:11;12.35;;;6.40;;
84482;SDS011;74703;51.284;22.590;2024-01-07T13:09:11;13.00;;;6.18;;
84482;SDS011;74703;51.284;22.590;2024-01-07T13:14:12;10.30;;;5.25;;
84482;SDS011;74703;51.284;22.590;2024-01-07T13:19:12;13.20;;;6.05;;
84482;SDS011;74703;51.284;22.590;2024-01-07T13:24:13;7.60;;;4.88;;
84482;SDS011;74703;51.284;22.590;2024-01-07T13:29:14;15.40;;;5.78;;
84482;SDS011;74703;51.284;22.590;2024-01-07T13:34:14;12.48;;;6.18;;
84482;SDS011;74703;51.284;22.590;2024-01-07T13:39:15;12.27;;;6.90;;
84482;SDS011;74703;51.284;22.590;2024-01-07T13:44:16;8.52;;;5.97;;
84482;SDS011;74703;51.284;22.590;2024-01-07T13:49:19;10.23;;;5.70;;
84482;SDS011;74703;51.284;22.590;2024-01-07T13:54:20;7.57;;;4.93;;
84482;SDS011;74703;51.284;22.590;2024-01-07T13:59:20;10.85;;;7.03;;
84482;SDS011;74703;51.284;22.590;2024-01-07T14:04:23;14.00;;;5.40;;
84482;SDS011;74703;51.284;22.590;2024-01-07T14:09:26;12.10;;;6.13;;
84482;SDS011;74703;51.284;22.590;2024-01-07T14:14:31;13.88;;;7.40;;
84482;SDS011;74703;51.284;22.590;2024-01-07T14:19:31;12.63;;;6.30;;
84482;SDS011;74703;51.284;22.590;2024-01-07T14:24:32;13.68;;;6.13;;
84482;SDS011;74703;51.284;22.590;2024-01-07T14:29:32;8.15;;;6.07;;
84482;SDS011;74703;51.284;22.590;2024-01-07T14:34:33;12.02;;;6.03;;
84482;SDS011;74703;51.284;22.590;2024-01-07T14:39:34;12.75;;;6.28;;
84482;SDS011;74703;51.284;22.590;2024-01-07T14:44:34;15.13;;;7.22;;
84482;SDS011;74703;51.284;22.590;2024-01-07T14:49:35;10.82;;;6.05;;
84482;SDS011;74703;51.284;22.590;2024-01-07T14:54:35;15.85;;;6.45;;
84482;SDS011;74703;51.284;22.590;2024-01-07T14:59:37;17.25;;;6.88;;
84482;SDS011;74703;51.284;22.590;2024-01-07T15:04:37;9.27;;;6.28;;
84482;SDS011;74703;51.284;22.590;2024-01-07T15:09:38;12.50;;;6.32;;
84482;SDS011;74703;51.284;22.590;2024-01-07T15:14:41;16.13;;;6.25;;
84482;SDS011;74703;51.284;22.590;2024-01-07T15:19:44;10.48;;;5.38;;
84482;SDS011;74703;51.284;22.590;2024-01-07T15:24:45;11.73;;;6.40;;
84482;SDS011;74703;51.284;22.590;2024-01-07T15:29:46;15.65;;;7.32;;
84482;SDS011;74703;51.284;22.590;2024-01-07T15:34:47;14.80;;;6.82;;
84482;SDS011;74703;51.284;22.590;2024-01-07T15:39:49;16.63;;;8.48;;
84482;SDS011;74703;51.284;22.590;2024-01-07T15:44:52;16.77;;;7.68;;
84482;SDS011;74703;51.284;22.590;2024-01-07T15:49:53;14.75;;;9.02;;
84482;SDS011;74703;51.284;22.590;2024-01-07T15:54:55;12.20;;;7.45;;
84482;SDS011;74703;51.284;22.590;2024-01-07T15:59:55;18.88;;;8.63;;
84482;SDS011;74703;51.284;22.590;2024-01-07T16:04:56;18.33;;;9.40;;
84482;SDS011;74703;51.284;22.590;2024-01-07T16:09:56;17.52;;;9.90;;
84482;SDS011;74703;51.284;22.590;2024-01-07T16:14:57;18.63;;;8.27;;
84482;SDS011;74703;51.284;22.590;2024-01-07T16:20:00;17.90;;;8.27;;
84482;SDS011;74703;51.284;22.590;2024-01-07T16:25:01;17.15;;;8.00;;
84482;SDS011;74703;51.284;22.590;2024-01-07T16:30:03;18.80;;;7.65;;
84482;SDS011;74703;51.284;22.590;2024-01-07T16:35:04;20.05;;;8.95;;
84482;SDS011;74703;51.284;22.590;2024-01-07T16:40:05;16.88;;;9.75;;
84482;SDS011;74703;51.284;22.590;2024-01-07T16:45:07;13.27;;;7.70;;
84482;SDS011;74703;51.284;22.590;2024-01-07T16:50:10;19.77;;;10.15;;
84482;SDS011;74703;51.284;22.590;2024-01-07T16:55:11;16.88;;;9.45;;
84482;SDS011;74703;51.284;22.590;2024-01-07T17:00:12;22.73;;;9.60;;
84482;SDS011;74703;51.284;22.590;2024-01-07T17:05:15;19.63;;;9.38;;
84482;SDS011;74703;51.284;22.590;2024-01-07T17:10:16;17.83;;;9.40;;
84482;SDS011;74703;51.284;22.590;2024-01-07T17:15:18;16.23;;;7.93;;
84482;SDS011;74703;51.284;22.590;2024-01-07T17:20:18;19.27;;;9.05;;
84482;SDS011;74703;51.284;22.590;2024-01-07T17:25:19;22.75;;;10.65;;
84482;SDS011;74703;51.284;22.590;2024-01-07T17:30:20;20.58;;;8.95;;
84482;SDS011;74703;51.284;22.590;2024-01-07T17:35:26;14.60;;;7.60;;
84482;SDS011;74703;51.284;22.590;2024-01-07T17:40:27;18.48;;;10.30;;
84482;SDS011;74703;51.284;22.590;2024-01-07T17:45:27;13.68;;;8.77;;
84482;SDS011;74703;51.284;22.590;2024-01-07T17:50:31;15.32;;;7.57;;
84482;SDS011;74703;51.284;22.590;2024-01-07T17:55:35;15.18;;;7.53;;
84482;SDS011;74703;51.284;22.590;2024-01-07T18:00:37;15.82;;;8.77;;
84482;SDS011;74703;51.284;22.590;2024-01-07T18:05:38;19.95;;;11.57;;
84482;SDS011;74703;51.284;22.590;2024-01-07T18:10:39;12.95;;;7.22;;
84482;SDS011;74703;51.284;22.590;2024-01-07T18:15:41;15.80;;;8.40;;
84482;SDS011;74703;51.284;22.590;2024-01-07T18:20:42;13.93;;;7.35;;
84482;SDS011;74703;51.284;22.590;2024-01-07T18:25:44;16.00;;;8.20;;
84482;SDS011;74703;51.284;22.590;2024-01-07T18:30:44;16.35;;;7.20;;
84482;SDS011;74703;51.284;22.590;2024-01-07T18:35:49;20.48;;;8.27;;
84482;SDS011;74703;51.284;22.590;2024-01-07T18:40:49;15.80;;;8.68;;
84482;SDS011;74703;51.284;22.590;2024-01-07T18:45:51;20.70;;;8.35;;
84482;SDS011;74703;51.284;22.590;2024-01-07T18:50:52;11.50;;;6.70;;
84482;SDS011;74703;51.284;22.590;2024-01-07T18:55:53;12.13;;;7.18;;
84482;SDS011;74703;51.284;22.590;2024-01-07T19:00:54;19.30;;;8.63;;
84482;SDS011;74703;51.284;22.590;2024-01-07T19:05:54;11.35;;;6.18;;
84482;SDS011;74703;51.284;22.590;2024-01-07T19:10:55;15.52;;;8.48;;
84482;SDS011;74703;51.284;22.590;2024-01-07T19:15:56;16.30;;;9.27;;
84482;SDS011;74703;51.284;22.590;2024-01-07T19:20:57;15.98;;;8.45;;
84482;SDS011;74703;51.284;22.590;2024-01-07T19:25:58;16.73;;;7.80;;
84482;SDS011;74703;51.284;22.590;2024-01-07T19:31:00;21.48;;;9.02;;
84482;SDS011;74703;51.284;22.590;2024-01-07T19:36:01;15.27;;;5.90;;
84482;SDS011;74703;51.284;22.590;2024-01-07T19:41:03;15.43;;;7.15;;
84482;SDS011;74703;51.284;22.590;2024-01-07T19:46:05;19.00;;;7.65;;
84482;SDS011;74703;51.284;22.590;2024-01-07T19:51:05;18.88;;;7.63;;
84482;SDS011;74703;51.284;22.590;2024-01-07T19:56:06;13.82;;;7.85;;
84482;SDS011;74703;51.284;22.590;2024-01-07T20:01:08;15.00;;;7.57;;
84482;SDS011;74703;51.284;22.590;2024-01-07T20:06:09;16.77;;;7.72;;
84482;SDS011;74703;51.284;22.590;2024-01-07T20:11:18;13.77;;;6.57;;
84482;SDS011;74703;51.284;22.590;2024-01-07T20:16:23;18.05;;;6.82;;
84482;SDS011;74703;51.284;22.590;2024-01-07T20:21:25;10.90;;;6.25;;
84482;SDS011;74703;51.284;22.590;2024-01-07T20:26:29;13.18;;;8.20;;
84482;SDS011;74703;51.284;22.590;2024-01-07T20:31:31;22.73;;;7.88;;
84482;SDS011;74703;51.284;22.590;2024-01-07T20:36:32;19.58;;;8.38;;
84482;SDS011;74703;51.284;22.590;2024-01-07T20:41:32;19.05;;;8.20;;
84482;SDS011;74703;51.284;22.590;2024-01-07T20:46:33;14.25;;;7.95;;
84482;SDS011;74703;51.284;22.590;2024-01-07T20:51:36;20.35;;;10.95;;
84482;SDS011;74703;51.284;22.590;2024-01-07T20:56:37;21.52;;;8.93;;
84482;SDS011;74703;51.284;22.590;2024-01-07T21:01:38;15.98;;;7.80;;
84482;SDS011;74703;51.284;22.590;2024-01-07T21:06:39;16.58;;;9.40;;
84482;SDS011;74703;51.284;22.590;2024-01-07T21:11:39;21.15;;;9.95;;
84482;SDS011;74703;51.284;22.590;2024-01-07T21:16:40;18.05;;;10.13;;
84482;SDS011;74703;51.284;22.590;2024-01-07T21:21:40;20.25;;;11.30;;
84482;SDS011;74703;51.284;22.590;2024-01-07T21:26:41;22.00;;;8.93;;
84482;SDS011;74703;51.284;22.590;2024-01-07T21:31:43;20.02;;;9.65;;
84482;SDS011;74703;51.284;22.590;2024-01-07T21:36:47;15.73;;;8.07;;
84482;SDS011;74703;51.284;22.590;2024-01-07T21:41:49;18.15;;;8.68;;
84482;SDS011;74703;51.284;22.590;2024-01-07T21:46:49;15.23;;;8.63;;
84482;SDS011;74703;51.284;22.590;2024-01-07T21:51:50;16.05;;;8.15;;
84482;SDS011;74703;51.284;22.590;2024-01-07T21:56:51;12.50;;;7.25;;
84482;SDS011;74703;51.284;22.590;2024-01-07T22:01:52;21.65;;;9.68;;
84482;SDS011;74703;51.284;22.590;2024-01-07T22:06:53;18.35;;;9.68;;
84482;SDS011;74703;51.284;22.590;2024-01-07T22:11:55;20.88;;;9.52;;
84482;SDS011;74703;51.284;22.590;2024-01-07T22:16:55;11.88;;;6.70;;
84482;SDS011;74703;51.284;22.590;2024-01-07T22:21:56;16.60;;;7.55;;
84482;SDS011;74703;51.284;22.590;2024-01-07T22:26:58;19.08;;;10.00;;
84482;SDS011;74703;51.284;22.590;2024-01-07T22:31:59;15.05;;;7.63;;
84482;SDS011;74703;51.284;22.590;2024-01-07T22:37:03;15.45;;;9.52;;
84482;SDS011;74703;51.284;22.590;2024-01-07T22:42:03;10.15;;;6.63;;
84482;SDS011;74703;51.284;22.590;2024-01-07T22:47:04;17.17;;;8.02;;
84482;SDS011;74703;51.284;22.590;2024-01-07T22:52:05;14.40;;;7.85;;
84482;SDS011;74703;51.284;22.590;2024-01-07T22:57:06;13.88;;;7.75;;
84482;SDS011;74703;51.284;22.590;2024-01-07T23:02:06;12.00;;;7.10;;
84482;SDS011;74703;51.284;22.590;2024-01-07T23:07:08;15.38;;;8.65;;
84482;SDS011;74703;51.284;22.590;2024-01-07T23:12:08;17.42;;;7.88;;
84482;SDS011;74703;51.284;22.590;2024-01-07T23:17:09;19.83;;;9.35;;
84482;SDS011;74703;51.284;22.590;2024-01-07T23:22:10;15.35;;;8.05;;
84482;SDS011;74703;51.284;22.590;2024-01-07T23:27:10;12.70;;;6.57;;
84482;SDS011;74703;51.284;22.590;2024-01-07T23:32:11;18.75;;;7.68;;
84482;SDS011;74703;51.284;22.590;2024-01-07T23:37:11;17.15;;;7.55;;
84482;SDS011;74703;51.284;22.590;2024-01-07T23:42:13;12.70;;;7.32;;
84482;SDS011;74703;51.284;22.590;2024-01-07T23:47:13;12.80;;;6.63;;
84482;SDS011;74703;51.284;22.590;2024-01-07T23:52:14;13.05;;;6.97;;
84482;SDS011;74703;51.284;22.590;2024-01-07T23:57:15;13.35;;;6.20;;
